Global Echo — 3FBK5 — position and weather

sailwx.info

Track history (hours):
 
Tides and Currents Weather Stations Pressure Air Temp Water Temp Dewpoint Dewpoint Depression Visibility Wind Speed Wind Dir Waves Ship Positions

Global Echo

Last reported at 2018-Jun-18 14:56 UTC. Time now 2018-Jun-20 20:28 UTC.
Position N 31°02' E 122°14'.

Length 169 m; draft 5.6 m.

Type: Cargo ship. MMSI: 373900000.

Date/timePositionNaut miles runAvg speedWind from/ knotsBaromVisibWave heightAir tempDewpointWater temp
2018-Jun-18 14:56N 31°02' E 122°14'3 7.6
2018-Jun-18 14:30N 31°03' E 122°10'611.8
2018-Jun-18 14:00N 31°04' E 122°03'612.8
2018-Jun-18 13:30N 31°07' E 121°56'714.8
2018-Jun-18 13:00N 31°12' E 121°50'8010.8
2018-Jun-18 05:33N 32°00' E 120°35'114.2
2018-Jun-18 05:30N 32°01' E 120°34'713.6
2018-Jun-18 05:01N 32°02' E 120°26'4 6.0
2018-Jun-18 04:20N 32°01' E 120°22'0 0.0
2018-Jun-16 07:21N 32°01' E 120°22'0 0.1
2018-Jun-16 06:56N 32°01' E 120°22'2 3.4
2018-Jun-16 06:28N 32°01' E 120°23'4 7.6
2018-Jun-16 06:00N 32°04' E 120°26'4 7.0
2018-Jun-16 05:29N 32°04' E 120°31'4 7.7
2018-Jun-16 04:59N 32°02' E 120°34'74 3.3
2018-Jun-15 06:40N 31°19' E 121°44'210.6
2018-Jun-15 06:28N 31°18' E 121°47'511.4
2018-Jun-15 05:59N 31°16' E 121°53'611.5
2018-Jun-15 05:30N 31°15' E 121°59'510.0
2018-Jun-15 04:59N 31°14' E 122°05'5 8.1
2018-Jun-15 04:25N 31°11' E 122°10'5 9.7
2018-Jun-15 03:56N 31°09' E 122°14'810.6
2018-Jun-15 03:11N 31°06' E 122°23'2 9.6
2018-Jun-15 03:00N 31°07' E 122°25'5 8.1
2018-Jun-15 02:26N 31°09' E 122°30'2 5.0
2018-Jun-15 02:00N 31°09' E 122°32'8 0.3
2018-Jun-13 20:46N 31°11' E 122°41'0 0.1
2018-Jun-13 20:28N 31°11' E 122°41'0 0.0
2018-Jun-13 04:25N 31°11' E 122°41'0 0.1
2018-Jun-13 01:46N 31°11' E 122°41'0 0.0
2018-Jun-13 01:22N 31°11' E 122°41'0 0.0
2018-Jun-13 00:58N 31°11' E 122°41'0 0.1
2018-Jun-13 00:25N 31°11' E 122°41'0 0.0
2018-Jun-12 23:43N 31°11' E 122°41'0 0.1
2018-Jun-12 23:25N 31°11' E 122°41'0 0.2
2018-Jun-12 22:52N 31°11' E 122°41'0 0.4
2018-Jun-12 22:22N 31°11' E 122°41'0 0.2
2018-Jun-12 21:55N 31°11' E 122°41'0 0.0
2018-Jun-12 21:25N 31°11' E 122°41'0 0.1
2018-Jun-12 20:55N 31°11' E 122°41'0 0.1
2018-Jun-12 20:19N 31°11' E 122°41'0 0.1
2018-Jun-12 19:58N 31°11' E 122°41'0 0.0
2018-Jun-12 19:22N 31°11' E 122°41'0 0.2
2018-Jun-12 18:58N 31°11' E 122°41'0 0.1
2018-Jun-12 17:43N 31°11' E 122°41'0 0.1
2018-Jun-12 16:25N 31°11' E 122°41'0 0.0
2018-Jun-12 15:55N 31°11' E 122°41'0 0.1
2018-Jun-12 15:28N 31°11' E 122°41'0 0.1
2018-Jun-12 14:49N 31°11' E 122°41'0 0.1
2018-Jun-12 10:07N 31°11' E 122°41'0 0.0
2018-Jun-12 09:58N 31°11' E 122°41'0 0.1
2018-Jun-12 09:28N 31°11' E 122°41'0 0.0
2018-Jun-12 08:58N 31°11' E 122°41'0 0.1
2018-Jun-12 08:28N 31°11' E 122°41'0 0.0
2018-Jun-12 07:58N 31°11' E 122°41'0 0.1
2018-Jun-12 07:25N 31°11' E 122°41'0 0.0
2018-Jun-12 06:58N 31°11' E 122°41'0 0.0
2018-Jun-12 06:22N 31°11' E 122°41'0 0.1
2018-Jun-12 04:52N 31°11' E 122°41'0 0.1
2018-Jun-12 02:04N 31°11' E 122°41'0 0.1
2018-Jun-12 01:58N 31°11' E 122°41'0 0.1
2018-Jun-12 01:28N 31°11' E 122°41'0 0.1
2018-Jun-12 00:52N 31°11' E 122°41'0 0.0
2018-Jun-12 00:28N 31°11' E 122°41'0 0.0
2018-Jun-11 23:58N 31°11' E 122°41'0 0.0
2018-Jun-11 23:13N 31°11' E 122°41'0 0.0
2018-Jun-11 22:55N 31°11' E 122°41'0 0.1
2018-Jun-11 19:43N 31°11' E 122°41'0 0.0
2018-Jun-11 19:28N 31°11' E 122°41'0 0.0
2018-Jun-11 18:55N 31°11' E 122°41'0 0.0
2018-Jun-11 18:28N 31°11' E 122°41'  
Track history (hours):
 
Tides and Currents Weather Stations Pressure Air Temp Water Temp Dewpoint Dewpoint Depression Visibility Wind Speed Wind Dir Waves Ship Positions

Global Echo

Last reported at 2018-Jun-18 14:56 UTC. Time now 2018-Jun-20 20:28 UTC.
Position N 31°02' E 122°14'.

Length 169 m; draft 5.6 m.

Type: Cargo ship. MMSI: 373900000.

Date/timePositionNaut miles runAvg speedWind from/ knotsBaromVisibWave heightAir tempDewpointWater temp
2018-Jun-18 14:56N 31°02' E 122°14'3 7.6
2018-Jun-18 14:30N 31°03' E 122°10'611.8
2018-Jun-18 14:00N 31°04' E 122°03'612.8
2018-Jun-18 13:30N 31°07' E 121°56'714.8
2018-Jun-18 13:00N 31°12' E 121°50'8010.8
2018-Jun-18 05:33N 32°00' E 120°35'114.2
2018-Jun-18 05:30N 32°01' E 120°34'713.6
2018-Jun-18 05:01N 32°02' E 120°26'4 6.0
2018-Jun-18 04:20N 32°01' E 120°22'0 0.0
2018-Jun-16 07:21N 32°01' E 120°22'0 0.1
2018-Jun-16 06:56N 32°01' E 120°22'2 3.4
2018-Jun-16 06:28N 32°01' E 120°23'4 7.6
2018-Jun-16 06:00N 32°04' E 120°26'4 7.0
2018-Jun-16 05:29N 32°04' E 120°31'4 7.7
2018-Jun-16 04:59N 32°02' E 120°34'74 3.3
2018-Jun-15 06:40N 31°19' E 121°44'210.6
2018-Jun-15 06:28N 31°18' E 121°47'511.4
2018-Jun-15 05:59N 31°16' E 121°53'611.5
2018-Jun-15 05:30N 31°15' E 121°59'510.0
2018-Jun-15 04:59N 31°14' E 122°05'5 8.1
2018-Jun-15 04:25N 31°11' E 122°10'5 9.7
2018-Jun-15 03:56N 31°09' E 122°14'810.6
2018-Jun-15 03:11N 31°06' E 122°23'2 9.6
2018-Jun-15 03:00N 31°07' E 122°25'5 8.1
2018-Jun-15 02:26N 31°09' E 122°30'2 5.0
2018-Jun-15 02:00N 31°09' E 122°32'8 0.3
2018-Jun-13 20:46N 31°11' E 122°41'0 0.1
2018-Jun-13 20:28N 31°11' E 122°41'0 0.0
2018-Jun-13 04:25N 31°11' E 122°41'0 0.1
2018-Jun-13 01:46N 31°11' E 122°41'0 0.0
2018-Jun-13 01:22N 31°11' E 122°41'0 0.0
2018-Jun-13 00:58N 31°11' E 122°41'0 0.1
2018-Jun-13 00:25N 31°11' E 122°41'0 0.0
2018-Jun-12 23:43N 31°11' E 122°41'0 0.1
2018-Jun-12 23:25N 31°11' E 122°41'0 0.2
2018-Jun-12 22:52N 31°11' E 122°41'0 0.4
2018-Jun-12 22:22N 31°11' E 122°41'0 0.2
2018-Jun-12 21:55N 31°11' E 122°41'0 0.0
2018-Jun-12 21:25N 31°11' E 122°41'0 0.1
2018-Jun-12 20:55N 31°11' E 122°41'0 0.1
2018-Jun-12 20:19N 31°11' E 122°41'0 0.1
2018-Jun-12 19:58N 31°11' E 122°41'0 0.0
2018-Jun-12 19:22N 31°11' E 122°41'0 0.2
2018-Jun-12 18:58N 31°11' E 122°41'0 0.1
2018-Jun-12 17:43N 31°11' E 122°41'0 0.1
2018-Jun-12 16:25N 31°11' E 122°41'0 0.0
2018-Jun-12 15:55N 31°11' E 122°41'0 0.1
2018-Jun-12 15:28N 31°11' E 122°41'0 0.1
2018-Jun-12 14:49N 31°11' E 122°41'0 0.1
2018-Jun-12 10:07N 31°11' E 122°41'0 0.0
2018-Jun-12 09:58N 31°11' E 122°41'0 0.1
2018-Jun-12 09:28N 31°11' E 122°41'0 0.0
2018-Jun-12 08:58N 31°11' E 122°41'0 0.1
2018-Jun-12 08:28N 31°11' E 122°41'0 0.0
2018-Jun-12 07:58N 31°11' E 122°41'0 0.1
2018-Jun-12 07:25N 31°11' E 122°41'0 0.0
2018-Jun-12 06:58N 31°11' E 122°41'0 0.0
2018-Jun-12 06:22N 31°11' E 122°41'0 0.1
2018-Jun-12 04:52N 31°11' E 122°41'0 0.1
2018-Jun-12 02:04N 31°11' E 122°41'0 0.1
2018-Jun-12 01:58N 31°11' E 122°41'0 0.1
2018-Jun-12 01:28N 31°11' E 122°41'0 0.1
2018-Jun-12 00:52N 31°11' E 122°41'0 0.0
2018-Jun-12 00:28N 31°11' E 122°41'0 0.0
2018-Jun-11 23:58N 31°11' E 122°41'0 0.0
2018-Jun-11 23:13N 31°11' E 122°41'0 0.0
2018-Jun-11 22:55N 31°11' E 122°41'0 0.1
2018-Jun-11 19:43N 31°11' E 122°41'0 0.0
2018-Jun-11 19:28N 31°11' E 122°41'0 0.0
2018-Jun-11 18:55N 31°11' E 122°41'0 0.0
2018-Jun-11 18:28N 31°11' E 122°41'  

Dump ship's entire track history